Time;durP1;ratioP1;P1;durP2;ratioP2;P2;SDS_P1;SDS_P2;PMS_P1;PMS_P2;Temp;Humidity;BMP_temperature;BMP_pressure;BME280_temperature;BME280_humidity;BME280_pressure;Samples;Min_cycle;Max_cycle;Signal;HPM_P1;HPM_P2
2024/01/18 00:00:03;;;;;;;38.30;17.13;;;;;;;;;;4940790;29;20027;-85
2024/01/18 00:02:31;;;;;;;47.47;18.20;;;;;;;;;;4959900;29;20039;-84
2024/01/18 00:04:57;;;;;;;39.38;17.23;;;;;;;;;;4949928;28;20019;-84
2024/01/18 00:07:24;;;;;;;45.13;19.25;;;;;;;;;;4957685;28;20047;-84
2024/01/18 00:09:51;;;;;;;37.08;16.27;;;;;;;;;;4951184;28;20030;-84
2024/01/18 00:12:17;;;;;;;40.75;17.75;;;;;;;;;;4934631;28;20031;-84
2024/01/18 00:14:47;;;;;;;39.65;17.27;;;;;;;;;;4950000;29;20051;-84
2024/01/18 00:17:13;;;;;;;40.42;18.27;;;;;;;;;;4935376;29;20043;-84
2024/01/18 00:19:40;;;;;;;42.28;18.90;;;;;;;;;;4945351;29;20043;-84
2024/01/18 00:22:10;;;;;;;39.08;17.48;;;;;;;;;;4964195;28;20063;-84
2024/01/18 00:24:38;;;;;;;37.88;17.38;;;;;;;;;;4945076;29;20067;-84
2024/01/18 00:27:06;;;;;;;38.92;17.15;;;;;;;;;;4952667;28;20078;-84
2024/01/18 00:29:35;;;;;;;38.40;16.58;;;;;;;;;;4924291;29;20112;-84
2024/01/18 00:32:01;;;;;;;35.67;16.95;;;;;;;;;;4959116;28;20027;-83
2024/01/18 00:34:27;;;;;;;39.85;17.20;;;;;;;;;;4949732;29;20058;-84
2024/01/18 00:36:52;;;;;;;41.05;17.50;;;;;;;;;;4924848;29;20031;-83
2024/01/18 00:39:20;;;;;;;42.95;18.02;;;;;;;;;;4932707;29;20039;-83
2024/01/18 00:41:47;;;;;;;42.03;16.50;;;;;;;;;;4925608;29;20039;-83
2024/01/18 00:44:14;;;;;;;41.88;18.40;;;;;;;;;;4942751;29;20043;-84
2024/01/18 00:46:41;;;;;;;39.58;16.70;;;;;;;;;;4938495;29;20598;-84
2024/01/18 00:49:08;;;;;;;33.25;15.80;;;;;;;;;;4938090;28;20059;-84
2024/01/18 00:51:35;;;;;;;38.13;16.33;;;;;;;;;;4966937;28;20038;-83
2024/01/18 00:54:02;;;;;;;34.85;15.35;;;;;;;;;;4917042;29;20034;-83
2024/01/18 00:56:28;;;;;;;32.47;15.45;;;;;;;;;;4947622;29;20059;-84
2024/01/18 00:58:56;;;;;;;29.63;13.55;;;;;;;;;;4951384;29;20058;-83
2024/01/18 01:01:25;;;;;;;32.90;14.45;;;;;;;;;;4935848;29;20039;-83
2024/01/18 01:03:51;;;;;;;33.92;15.18;;;;;;;;;;4916895;29;20506;-83
2024/01/18 01:06:18;;;;;;;28.90;13.75;;;;;;;;;;4918548;29;20039;-84
2024/01/18 01:08:44;;;;;;;36.30;14.38;;;;;;;;;;4916930;29;20045;-84
2024/01/18 01:11:10;;;;;;;36.13;14.88;;;;;;;;;;4935212;29;20032;-84
2024/01/18 01:13:36;;;;;;;30.48;14.57;;;;;;;;;;4923705;29;20042;-84
2024/01/18 01:16:02;;;;;;;31.67;15.30;;;;;;;;;;4938535;29;20031;-84
2024/01/18 01:18:28;;;;;;;31.63;13.70;;;;;;;;;;4939755;29;20028;-83
2024/01/18 01:20:56;;;;;;;28.95;14.00;;;;;;;;;;4970368;29;20152;-84
2024/01/18 01:23:22;;;;;;;29.77;13.60;;;;;;;;;;4924566;29;20051;-84
2024/01/18 01:25:48;;;;;;;35.45;15.02;;;;;;;;;;4912128;29;20051;-84
2024/01/18 01:28:16;;;;;;;32.20;14.05;;;;;;;;;;4942949;29;20039;-84
2024/01/18 01:30:43;;;;;;;30.02;14.15;;;;;;;;;;4942936;29;20031;-84
2024/01/18 01:33:11;;;;;;;31.85;15.35;;;;;;;;;;4945063;29;20066;-84
2024/01/18 01:35:37;;;;;;;33.20;14.70;;;;;;;;;;4958736;29;20038;-84
2024/01/18 01:38:04;;;;;;;30.67;13.98;;;;;;;;;;4943883;29;20386;-84
2024/01/18 01:40:30;;;;;;;30.42;14.00;;;;;;;;;;4927381;29;20039;-84
2024/01/18 01:42:58;;;;;;;35.72;13.30;;;;;;;;;;4958512;29;20467;-84
2024/01/18 01:45:26;;;;;;;27.17;12.43;;;;;;;;;;4956382;29;20471;-83
2024/01/18 01:47:52;;;;;;;34.97;14.52;;;;;;;;;;4939700;29;20035;-84
2024/01/18 01:50:18;;;;;;;27.65;13.18;;;;;;;;;;4926738;29;20132;-84
2024/01/18 01:52:44;;;;;;;27.88;13.45;;;;;;;;;;4938171;29;20028;-84
2024/01/18 01:55:12;;;;;;;30.20;13.15;;;;;;;;;;4924711;29;20043;-84
2024/01/18 01:57:40;;;;;;;26.27;14.02;;;;;;;;;;4933153;29;20043;-84
2024/01/18 02:00:06;;;;;;;25.40;12.73;;;;;;;;;;4958187;29;20047;-84
2024/01/18 02:02:37;;;;;;;25.17;12.10;;;;;;;;;;4959877;29;20063;-84
2024/01/18 02:05:03;;;;;;;23.00;12.00;;;;;;;;;;4926930;29;20031;-84
2024/01/18 02:07:29;;;;;;;27.75;13.30;;;;;;;;;;4939760;29;20070;-84
2024/01/18 02:09:56;;;;;;;23.63;12.90;;;;;;;;;;4912417;29;20035;-84
2024/01/18 02:12:24;;;;;;;24.40;12.88;;;;;;;;;;4930676;29;20027;-84
2024/01/18 02:14:50;;;;;;;28.10;14.18;;;;;;;;;;4919390;29;20042;-84
2024/01/18 02:17:17;;;;;;;28.33;13.85;;;;;;;;;;4942688;29;20059;-84
2024/01/18 02:19:43;;;;;;;28.73;14.70;;;;;;;;;;4925738;29;20553;-84
2024/01/18 02:22:10;;;;;;;25.70;13.77;;;;;;;;;;4917663;29;20034;-84
2024/01/18 02:24:41;;;;;;;24.48;13.07;;;;;;;;;;4932060;29;20375;-84
2024/01/18 02:27:07;;;;;;;25.42;11.95;;;;;;;;;;4937798;29;20336;-84
2024/01/18 02:29:33;;;;;;;29.33;13.23;;;;;;;;;;4924803;29;20083;-84
2024/01/18 02:31:59;;;;;;;24.13;13.00;;;;;;;;;;4932794;29;20031;-84
2024/01/18 02:34:25;;;;;;;26.30;13.43;;;;;;;;;;4911704;29;20059;-84
2024/01/18 02:36:51;;;;;;;27.15;13.07;;;;;;;;;;4949084;29;20498;-83
2024/01/18 02:39:18;;;;;;;26.25;13.25;;;;;;;;;;4916398;29;20122;-83
2024/01/18 02:41:44;;;;;;;25.15;12.32;;;;;;;;;;4931926;29;20038;-84
2024/01/18 02:44:09;;;;;;;27.17;12.65;;;;;;;;;;4904485;29;20023;-84
2024/01/18 02:46:36;;;;;;;31.27;12.63;;;;;;;;;;4956421;29;20035;-84
2024/01/18 02:49:04;;;;;;;26.08;12.55;;;;;;;;;;4932773;29;20138;-83
2024/01/18 02:51:31;;;;;;;;;;;;;;;;;;4948010;29;20098;-84
2024/01/18 02:53:58;;;;;;;26.55;12.20;;;;;;;;;;4968357;29;19910;-84
2024/01/18 02:56:23;;;;;;;27.40;13.27;;;;;;;;;;4955756;29;20058;-83
2024/01/18 02:58:50;;;;;;;24.98;12.18;;;;;;;;;;4914962;29;20031;-82
2024/01/18 03:01:16;;;;;;;25.60;12.80;;;;;;;;;;4926743;29;20023;-84
2024/01/18 03:03:42;;;;;;;25.90;13.13;;;;;;;;;;4919378;29;20019;-84
2024/01/18 03:06:09;;;;;;;24.45;12.15;;;;;;;;;;4946253;29;20035;-83
2024/01/18 03:08:36;;;;;;;27.75;13.23;;;;;;;;;;4946108;29;20035;-84
2024/01/18 03:11:01;;;;;;;28.45;12.57;;;;;;;;;;4962878;29;20111;-84
2024/01/18 03:13:27;;;;;;;27.50;12.80;;;;;;;;;;4930570;29;20035;-84
2024/01/18 03:15:53;;;;;;;26.88;12.02;;;;;;;;;;4946679;29;20027;-83
2024/01/18 03:18:19;;;;;;;30.23;13.75;;;;;;;;;;4944935;29;20023;-83
2024/01/18 03:20:44;;;;;;;27.75;11.88;;;;;;;;;;4954963;29;20035;-83
2024/01/18 03:23:10;;;;;;;23.88;12.80;;;;;;;;;;4918321;28;20023;-84
2024/01/18 03:25:36;;;;;;;30.17;13.38;;;;;;;;;;4932505;29;20028;-84
2024/01/18 03:28:03;;;;;;;30.00;13.65;;;;;;;;;;4916866;29;20391;-84
2024/01/18 03:30:29;;;;;;;28.10;14.32;;;;;;;;;;4936577;29;20023;-84
2024/01/18 03:32:54;;;;;;;28.73;13.85;;;;;;;;;;4938908;29;20038;-83
2024/01/18 03:35:22;;;;;;;27.60;13.25;;;;;;;;;;4935432;29;20032;-83
2024/01/18 03:37:48;;;;;;;29.52;14.07;;;;;;;;;;4920788;29;20059;-84
2024/01/18 03:40:13;;;;;;;28.73;13.95;;;;;;;;;;4935193;29;20073;-84
2024/01/18 03:42:41;;;;;;;29.17;13.73;;;;;;;;;;4933758;29;20031;-83
2024/01/18 03:45:07;;;;;;;30.77;13.98;;;;;;;;;;4929593;29;20071;-84
2024/01/18 03:47:32;;;;;;;34.45;15.38;;;;;;;;;;4943642;29;20046;-84
2024/01/18 03:49:59;;;;;;;32.10;14.43;;;;;;;;;;4927881;29;20522;-83
2024/01/18 03:52:24;;;;;;;30.88;14.02;;;;;;;;;;4945350;29;20047;-83
2024/01/18 03:54:50;;;;;;;28.83;14.55;;;;;;;;;;4947119;29;20038;-84
2024/01/18 03:57:16;;;;;;;26.15;12.75;;;;;;;;;;4930570;29;20045;-83
2024/01/18 03:59:44;;;;;;;31.15;14.35;;;;;;;;;;4962929;29;20023;-84
2024/01/18 04:02:09;;;;;;;30.73;14.52;;;;;;;;;;4959248;29;20036;-82
2024/01/18 04:04:36;;;;;;;25.52;13.40;;;;;;;;;;4945859;29;20031;-84
2024/01/18 04:07:02;;;;;;;28.80;14.23;;;;;;;;;;4902210;29;20032;-84
2024/01/18 04:09:27;;;;;;;26.90;13.45;;;;;;;;;;4927867;29;20521;-84
2024/01/18 04:11:55;;;;;;;29.25;14.25;;;;;;;;;;4913856;29;20035;-84
2024/01/18 04:14:20;;;;;;;29.58;14.07;;;;;;;;;;4913554;29;20035;-84
2024/01/18 04:16:48;;;;;;;30.98;13.85;;;;;;;;;;4917889;29;20065;-84
2024/01/18 04:19:17;;;;;;;27.00;12.95;;;;;;;;;;4935334;29;20103;-83
2024/01/18 04:21:43;;;;;;;29.93;14.80;;;;;;;;;;4917266;29;20074;-83
2024/01/18 04:24:16;;;;;;;28.23;13.85;;;;;;;;;;4932207;29;20270;-84
2024/01/18 04:26:42;;;;;;;26.25;13.05;;;;;;;;;;4945509;29;20037;-84
2024/01/18 04:29:09;;;;;;;30.83;14.43;;;;;;;;;;4930536;29;20503;-84
2024/01/18 04:31:35;;;;;;;31.17;14.70;;;;;;;;;;4943876;29;20051;-84
2024/01/18 04:34:01;;;;;;;28.85;13.10;;;;;;;;;;4931854;29;20028;-84
2024/01/18 04:36:27;;;;;;;29.20;13.80;;;;;;;;;;4946971;29;20034;-84
2024/01/18 04:38:53;;;;;;;29.80;14.43;;;;;;;;;;4928257;29;20122;-83
2024/01/18 04:41:19;;;;;;;29.45;13.52;;;;;;;;;;4911400;29;20454;-84
2024/01/18 04:43:44;;;;;;;31.65;14.43;;;;;;;;;;4960377;29;20031;-84
2024/01/18 04:46:10;;;;;;;31.70;14.40;;;;;;;;;;4928400;29;20036;-84
2024/01/18 04:48:38;;;;;;;31.27;14.35;;;;;;;;;;4928236;29;20032;-84
2024/01/18 04:51:05;;;;;;;26.95;13.60;;;;;;;;;;4934040;29;20079;-84
2024/01/18 04:53:31;;;;;;;33.33;13.35;;;;;;;;;;4954338;29;20131;-84
2024/01/18 04:55:57;;;;;;;25.02;13.07;;;;;;;;;;4914031;29;20103;-84
2024/01/18 04:58:23;;;;;;;28.13;13.70;;;;;;;;;;4917461;29;20446;-83
2024/01/18 05:00:48;;;;;;;28.10;13.10;;;;;;;;;;4949043;29;20035;-84
2024/01/18 05:03:15;;;;;;;26.65;12.88;;;;;;;;;;4949343;29;20099;-83
2024/01/18 05:05:41;;;;;;;32.75;13.98;;;;;;;;;;4889206;29;20032;-84
2024/01/18 05:08:08;;;;;;;24.65;13.15;;;;;;;;;;4929511;29;20062;-84
2024/01/18 05:10:34;;;;;;;28.92;13.23;;;;;;;;;;4933102;29;20054;-81
2024/01/18 05:13:00;;;;;;;27.35;13.20;;;;;;;;;;4912313;29;20024;-84
2024/01/18 05:15:26;;;;;;;32.92;13.80;;;;;;;;;;4912899;29;20036;-84
2024/01/18 05:17:53;;;;;;;38.20;15.18;;;;;;;;;;4931586;29;20031;-83
2024/01/18 05:20:19;;;;;;;27.07;14.20;;;;;;;;;;4950363;29;20027;-83
2024/01/18 05:22:45;;;;;;;28.40;12.77;;;;;;;;;;4931133;29;20088;-84
2024/01/18 05:25:14;;;;;;;24.52;12.50;;;;;;;;;;4933915;29;20038;-83
2024/01/18 05:27:40;;;;;;;30.95;12.73;;;;;;;;;;4919393;29;20405;-83
2024/01/18 05:30:07;;;;;;;27.92;13.27;;;;;;;;;;4936524;29;20031;-83
2024/01/18 05:32:33;;;;;;;39.22;15.27;;;;;;;;;;4936131;29;20062;-83
2024/01/18 05:35:01;;;;;;;28.10;13.38;;;;;;;;;;4949396;29;20031;-82
2024/01/18 05:37:27;;;;;;;25.02;12.40;;;;;;;;;;4927025;29;20031;-83
2024/01/18 05:39:53;;;;;;;33.63;14.70;;;;;;;;;;4938698;29;20035;-83
2024/01/18 05:42:19;;;;;;;34.20;14.73;;;;;;;;;;4942675;29;20585;-83
2024/01/18 05:44:46;;;;;;;29.60;13.57;;;;;;;;;;4926144;29;20066;-83
2024/01/18 05:47:12;;;;;;;27.20;12.55;;;;;;;;;;4936807;29;20047;-83
2024/01/18 05:49:39;;;;;;;26.90;12.10;;;;;;;;;;4951679;29;20046;-84
2024/01/18 05:52:06;;;;;;;27.60;13.80;;;;;;;;;;4935024;29;20031;-83
2024/01/18 05:54:33;;;;;;;28.48;12.95;;;;;;;;;;4918470;29;20035;-83
2024/01/18 05:57:00;;;;;;;29.02;13.20;;;;;;;;;;4916607;29;20046;-84
2024/01/18 05:59:29;;;;;;;26.73;12.32;;;;;;;;;;4934315;29;20059;-84
2024/01/18 06:01:55;;;;;;;26.70;14.32;;;;;;;;;;4939368;29;20036;-84
2024/01/18 06:04:20;;;;;;;27.38;11.80;;;;;;;;;;4943146;29;20059;-84
2024/01/18 06:06:46;;;;;;;35.03;14.00;;;;;;;;;;4920928;29;20113;-84
2024/01/18 06:09:16;;;;;;;27.95;13.18;;;;;;;;;;4915029;29;20058;-84
2024/01/18 06:11:45;;;;;;;26.92;13.45;;;;;;;;;;4946727;29;20066;-84
2024/01/18 06:14:11;;;;;;;27.05;13.55;;;;;;;;;;4927802;29;20176;-84
2024/01/18 06:16:37;;;;;;;31.67;13.57;;;;;;;;;;4929911;29;20035;-84
2024/01/18 06:19:02;;;;;;;28.63;13.85;;;;;;;;;;4949876;29;20035;-83
2024/01/18 06:21:28;;;;;;;29.40;13.07;;;;;;;;;;4929065;29;20067;-84
2024/01/18 06:23:54;;;;;;;28.17;13.27;;;;;;;;;;4915117;29;20035;-84
2024/01/18 06:26:20;;;;;;;27.40;13.02;;;;;;;;;;4945434;29;20039;-83
2024/01/18 06:28:45;;;;;;;26.85;12.98;;;;;;;;;;4945886;29;20046;-83
2024/01/18 06:31:11;;;;;;;36.53;13.55;;;;;;;;;;4911141;29;20066;-83
2024/01/18 06:33:37;;;;;;;30.80;13.90;;;;;;;;;;4925804;29;20075;-83
2024/01/18 06:36:03;;;;;;;32.00;12.93;;;;;;;;;;4945492;29;20039;-84
2024/01/18 06:38:29;;;;;;;26.52;12.50;;;;;;;;;;4941982;29;20035;-83
2024/01/18 06:40:59;;;;;;;26.50;12.35;;;;;;;;;;4931439;29;20039;-84
2024/01/18 06:43:25;;;;;;;29.67;14.05;;;;;;;;;;4927541;29;20175;-83
2024/01/18 06:45:55;;;;;;;33.10;14.63;;;;;;;;;;4905345;29;20035;-84
2024/01/18 06:48:21;;;;;;;28.00;12.88;;;;;;;;;;4924891;29;20098;-83
2024/01/18 06:50:47;;;;;;;35.22;13.93;;;;;;;;;;4925002;29;20117;-84
2024/01/18 06:53:13;;;;;;;30.05;12.63;;;;;;;;;;4910315;29;20078;-84
2024/01/18 06:55:40;;;;;;;23.73;11.95;;;;;;;;;;4930160;29;20032;-84
2024/01/18 06:58:06;;;;;;;30.08;12.13;;;;;;;;;;4940997;29;20031;-84
2024/01/18 07:00:32;;;;;;;27.98;12.93;;;;;;;;;;4942731;29;20047;-83
2024/01/18 07:02:58;;;;;;;36.13;15.43;;;;;;;;;;4911379;29;20035;-83
2024/01/18 07:05:24;;;;;;;29.40;12.90;;;;;;;;;;4913051;29;20505;-84
2024/01/18 07:07:50;;;;;;;31.23;14.23;;;;;;;;;;4968368;23;20039;-79
2024/01/18 07:10:17;;;;;;;25.40;12.48;;;;;;;;;;4941809;28;20039;-79
2024/01/18 07:12:43;;;;;;;26.27;11.68;;;;;;;;;;4940426;28;20048;-79
2024/01/18 07:15:09;;;;;;;24.95;12.27;;;;;;;;;;4970468;28;20113;-80
2024/01/18 07:17:41;;;;;;;26.27;12.52;;;;;;;;;;4947191;28;20375;-80
2024/01/18 07:20:08;;;;;;;25.23;12.60;;;;;;;;;;4958335;28;20526;-80
2024/01/18 07:22:34;;;;;;;26.92;12.88;;;;;;;;;;4967617;28;20537;-79
2024/01/18 07:25:00;;;;;;;28.48;12.65;;;;;;;;;;4949534;28;20030;-80
2024/01/18 07:27:26;;;;;;;29.40;13.43;;;;;;;;;;4946455;28;20042;-78
2024/01/18 07:29:52;;;;;;;31.02;13.02;;;;;;;;;;4958451;28;20042;-78
2024/01/18 07:32:18;;;;;;;25.95;13.63;;;;;;;;;;4951643;28;20038;-78
2024/01/18 07:34:46;;;;;;;27.10;14.00;;;;;;;;;;4932289;29;20348;-79
2024/01/18 07:37:15;;;;;;;27.65;12.88;;;;;;;;;;4967822;28;20027;-79
2024/01/18 07:39:41;;;;;;;27.38;14.23;;;;;;;;;;4944812;29;20031;-79
2024/01/18 07:42:07;;;;;;;30.13;13.35;;;;;;;;;;4948758;28;20030;-79
2024/01/18 07:44:33;;;;;;;27.58;13.48;;;;;;;;;;4930156;28;20045;-78
2024/01/18 07:47:00;;;;;;;26.15;12.98;;;;;;;;;;4958587;28;20030;-80
2024/01/18 07:49:26;;;;;;;32.95;15.30;;;;;;;;;;4939552;28;20027;-80
2024/01/18 07:51:52;;;;;;;28.48;12.88;;;;;;;;;;4969505;28;20498;-80
2024/01/18 07:54:22;;;;;;;27.08;13.70;;;;;;;;;;4977500;28;20038;-78
2024/01/18 07:56:47;;;;;;;34.03;14.52;;;;;;;;;;4975489;28;20024;-77
2024/01/18 07:59:21;;;;;;;36.13;14.02;;;;;;;;;;4952776;28;20039;-79
2024/01/18 08:01:49;;;;;;;35.92;14.52;;;;;;;;;;4957378;28;20095;-78
2024/01/18 08:04:15;;;;;;;32.92;14.82;;;;;;;;;;4980327;28;20046;-79
2024/01/18 08:06:42;;;;;;;34.20;14.65;;;;;;;;;;4987786;28;20015;-79
2024/01/18 08:09:11;;;;;;;29.20;13.38;;;;;;;;;;4990392;28;20078;-78
2024/01/18 08:11:37;;;;;;;31.15;14.52;;;;;;;;;;4969385;28;20086;-78
2024/01/18 08:14:03;;;;;;;29.73;14.45;;;;;;;;;;4964367;28;20115;-79
2024/01/18 08:16:29;;;;;;;31.50;14.68;;;;;;;;;;4962267;28;20050;-79
2024/01/18 08:18:55;;;;;;;30.67;15.20;;;;;;;;;;4965467;28;20023;-80
2024/01/18 08:21:22;;;;;;;32.40;14.73;;;;;;;;;;4967886;28;20056;-78
2024/01/18 08:23:51;;;;;;;33.13;15.25;;;;;;;;;;4940305;29;20498;-78
2024/01/18 08:26:20;;;;;;;34.38;14.63;;;;;;;;;;4971146;28;20031;-78
2024/01/18 08:28:47;;;;;;;32.53;14.93;;;;;;;;;;4932633;28;20028;-78
2024/01/18 08:31:16;;;;;;;39.88;15.23;;;;;;;;;;4960098;28;20038;-78
2024/01/18 08:33:49;;;;;;;38.22;15.30;;;;;;;;;;4968517;28;20032;-78
2024/01/18 08:36:17;;;;;;;26.92;14.63;;;;;;;;;;4922696;28;20039;-77
2024/01/18 08:38:42;;;;;;;34.70;16.20;;;;;;;;;;4982177;28;20097;-79
2024/01/18 08:41:11;;;;;;;30.98;15.32;;;;;;;;;;4968320;28;20077;-79
2024/01/18 08:43:42;;;;;;;31.33;15.43;;;;;;;;;;4947321;28;20073;-80
2024/01/18 08:46:14;;;;;;;31.25;15.25;;;;;;;;;;4982690;28;20082;-79
2024/01/18 08:48:42;;;;;;;32.47;14.60;;;;;;;;;;4927075;28;20050;-79
2024/01/18 08:51:13;;;;;;;28.98;14.48;;;;;;;;;;4965878;28;20099;-79
2024/01/18 08:53:40;;;;;;;29.42;15.40;;;;;;;;;;5002744;28;20019;-79
2024/01/18 08:56:08;;;;;;;32.50;15.68;;;;;;;;;;5011648;28;20018;-79
2024/01/18 08:58:39;;;;;;;30.33;14.50;;;;;;;;;;4989367;28;20026;-79
2024/01/18 09:01:08;;;;;;;25.50;13.02;;;;;;;;;;4998074;28;20046;-79
2024/01/18 09:03:34;;;;;;;27.42;12.40;;;;;;;;;;4949883;29;20030;-79
2024/01/18 09:06:07;;;;;;;27.05;12.52;;;;;;;;;;4947100;29;20086;-80
2024/01/18 09:08:34;;;;;;;28.40;12.65;;;;;;;;;;4941351;28;20560;-79
2024/01/18 09:10:59;;;;;;;29.33;12.90;;;;;;;;;;4960452;28;20509;-78
2024/01/18 09:13:26;;;;;;;27.25;13.07;;;;;;;;;;4933676;28;20045;-79
2024/01/18 09:15:52;;;;;;;29.83;14.75;;;;;;;;;;4930385;28;20074;-78
2024/01/18 09:18:20;;;;;;;37.40;15.80;;;;;;;;;;4959693;29;20050;-79
2024/01/18 09:20:47;;;;;;;26.60;13.77;;;;;;;;;;4952161;28;20045;-78
2024/01/18 09:23:14;;;;;;;28.27;15.38;;;;;;;;;;4946184;28;20046;-80
2024/01/18 09:25:43;;;;;;;27.48;13.80;;;;;;;;;;4957496;28;20027;-80
2024/01/18 09:28:13;;;;;;;29.20;14.25;;;;;;;;;;4976317;28;20062;-79
2024/01/18 09:30:40;;;;;;;31.40;15.13;;;;;;;;;;4924766;29;20602;-79
2024/01/18 09:33:07;;;;;;;33.63;15.40;;;;;;;;;;4926756;29;20039;-78
2024/01/18 09:35:32;;;;;;;30.13;15.75;;;;;;;;;;4957195;28;20043;-77
2024/01/18 09:37:59;;;;;;;34.60;15.32;;;;;;;;;;4925451;28;20106;-78
2024/01/18 09:40:28;;;;;;;36.30;16.90;;;;;;;;;;4945820;28;20074;-78
2024/01/18 09:42:55;;;;;;;31.17;15.85;;;;;;;;;;4942603;29;20067;-78
2024/01/18 09:45:24;;;;;;;32.10;15.30;;;;;;;;;;4926036;29;20041;-80
2024/01/18 09:47:52;;;;;;;36.83;15.95;;;;;;;;;;4943900;29;20055;-79
2024/01/18 09:50:21;;;;;;;36.88;16.48;;;;;;;;;;4949833;28;20113;-76
2024/01/18 09:52:48;;;;;;;28.88;15.52;;;;;;;;;;4941191;28;20395;-78
2024/01/18 09:55:14;;;;;;;33.33;16.08;;;;;;;;;;4959005;28;20061;-77
2024/01/18 09:57:41;;;;;;;36.38;15.32;;;;;;;;;;4967072;28;20027;-76
2024/01/18 10:00:10;;;;;;;33.25;15.65;;;;;;;;;;4978362;28;20042;-77
2024/01/18 10:02:36;;;;;;;32.20;15.13;;;;;;;;;;4978544;28;20037;-78
2024/01/18 10:05:01;;;;;;;31.10;15.55;;;;;;;;;;4929184;28;20514;-78
2024/01/18 10:07:30;;;;;;;28.98;16.13;;;;;;;;;;4925019;29;20502;-77
2024/01/18 10:09:55;;;;;;;30.13;15.85;;;;;;;;;;4964125;28;20387;-78
2024/01/18 10:12:21;;;;;;;33.00;15.82;;;;;;;;;;4940102;29;20024;-78
2024/01/18 10:14:47;;;;;;;33.97;15.88;;;;;;;;;;4940661;29;20410;-78
2024/01/18 10:17:21;;;;;;;32.53;15.88;;;;;;;;;;4958685;28;20123;-78
2024/01/18 10:19:49;;;;;;;37.53;15.32;;;;;;;;;;4943074;28;20027;-78
2024/01/18 10:22:14;;;;;;;30.30;15.93;;;;;;;;;;4946909;28;20058;-78
2024/01/18 10:24:40;;;;;;;34.67;16.83;;;;;;;;;;4951687;28;20023;-77
2024/01/18 10:27:06;;;;;;;38.85;18.40;;;;;;;;;;4936966;28;20103;-78
2024/01/18 10:29:35;;;;;;;35.33;17.40;;;;;;;;;;4949325;28;20061;-78
2024/01/18 10:32:02;;;;;;;33.65;17.42;;;;;;;;;;4960075;28;20050;-78
2024/01/18 10:34:28;;;;;;;40.05;18.65;;;;;;;;;;4971170;28;20115;-78
2024/01/18 10:36:53;;;;;;;37.78;17.83;;;;;;;;;;4953403;28;20023;-78
2024/01/18 10:39:20;;;;;;;40.45;19.45;;;;;;;;;;4985555;28;20027;-78
2024/01/18 10:41:49;;;;;;;36.83;18.80;;;;;;;;;;4957688;28;20030;-78
2024/01/18 10:44:15;;;;;;;34.28;18.67;;;;;;;;;;4931796;28;20121;-79
2024/01/18 10:46:42;;;;;;;37.88;18.80;;;;;;;;;;4970219;28;20027;-79
2024/01/18 10:49:08;;;;;;;44.17;19.50;;;;;;;;;;4949544;28;20109;-78
2024/01/18 10:51:36;;;;;;;35.97;17.25;;;;;;;;;;4973965;28;20070;-79
2024/01/18 10:54:05;;;;;;;34.58;18.33;;;;;;;;;;4943454;28;20086;-78
2024/01/18 10:56:34;;;;;;;33.92;18.20;;;;;;;;;;4927638;28;20050;-78
2024/01/18 10:59:04;;;;;;;30.52;16.20;;;;;;;;;;4959712;28;20127;-78
2024/01/18 11:01:31;;;;;;;40.25;18.15;;;;;;;;;;4975756;28;20037;-78
2024/01/18 11:03:58;;;;;;;37.03;18.30;;;;;;;;;;4975371;28;20050;-77
2024/01/18 11:06:26;;;;;;;38.03;18.55;;;;;;;;;;4959313;28;20043;-78
2024/01/18 11:08:56;;;;;;;42.28;18.92;;;;;;;;;;4965115;28;20549;-77
2024/01/18 11:11:22;;;;;;;37.65;19.13;;;;;;;;;;4971096;28;20027;-77
2024/01/18 11:13:48;;;;;;;38.58;18.40;;;;;;;;;;4942118;28;20490;-78
2024/01/18 11:16:14;;;;;;;39.25;18.58;;;;;;;;;;4940868;28;20058;-78
2024/01/18 11:18:39;;;;;;;45.45;20.60;;;;;;;;;;4959886;28;20572;-79
2024/01/18 11:21:08;;;;;;;37.35;18.15;;;;;;;;;;4944117;28;20039;-77
2024/01/18 11:23:34;;;;;;;40.70;20.30;;;;;;;;;;4943367;28;20062;-78
2024/01/18 11:26:01;;;;;;;39.42;20.10;;;;;;;;;;4957919;28;20394;-78
2024/01/18 11:28:26;;;;;;;35.80;18.75;;;;;;;;;;4953901;28;20089;-78
2024/01/18 11:30:52;;;;;;;35.35;18.48;;;;;;;;;;4976818;28;20086;-77
2024/01/18 11:33:21;;;;;;;36.63;18.90;;;;;;;;;;4930913;29;20102;-78
2024/01/18 11:35:49;;;;;;;36.88;19.17;;;;;;;;;;4941158;29;20034;-79
2024/01/18 11:38:15;;;;;;;38.45;19.17;;;;;;;;;;4926663;29;20063;-78
2024/01/18 11:40:42;;;;;;;35.15;18.38;;;;;;;;;;4941999;29;20031;-79
2024/01/18 11:43:08;;;;;;;41.72;20.45;;;;;;;;;;4951070;28;20093;-78
2024/01/18 11:45:34;;;;;;;34.63;18.27;;;;;;;;;;4949057;28;20035;-78
2024/01/18 11:47:59;;;;;;;39.45;18.90;;;;;;;;;;4959222;28;20106;-78
2024/01/18 11:50:25;;;;;;;38.08;20.05;;;;;;;;;;4963032;28;20054;-78
2024/01/18 11:52:51;;;;;;;39.90;19.92;;;;;;;;;;4965760;28;20035;-79
2024/01/18 11:55:17;;;;;;;37.38;19.42;;;;;;;;;;4998421;28;20011;-79
2024/01/18 11:57:43;;;;;;;44.25;20.73;;;;;;;;;;4997028;28;20035;-79
2024/01/18 12:00:10;;;;;;;40.97;19.77;;;;;;;;;;4998968;28;20038;-79
2024/01/18 12:02:39;;;;;;;42.03;19.98;;;;;;;;;;4971901;28;20059;-80
2024/01/18 12:05:08;;;;;;;43.15;20.08;;;;;;;;;;4944045;28;20098;-79
2024/01/18 12:07:35;;;;;;;37.13;19.40;;;;;;;;;;4960819;28;20037;-78
2024/01/18 12:10:03;;;;;;;;;;;;;;;;;;4967031;28;20475;-79
2024/01/18 12:12:31;;;;;;;32.72;17.20;;;;;;;;;;4951975;28;19910;-77
2024/01/18 12:14:57;;;;;;;41.22;18.40;;;;;;;;;;4960882;28;20027;-78
2024/01/18 12:17:25;;;;;;;32.53;18.13;;;;;;;;;;4959544;28;20038;-78
2024/01/18 12:19:52;;;;;;;33.63;18.15;;;;;;;;;;4977448;28;20038;-79
2024/01/18 12:22:22;;;;;;;38.13;18.13;;;;;;;;;;4960156;28;20042;-79
2024/01/18 12:24:48;;;;;;;37.15;18.63;;;;;;;;;;4958611;28;20027;-78
2024/01/18 12:27:17;;;;;;;38.78;17.58;;;;;;;;;;4977677;28;20034;-78
2024/01/18 12:29:50;;;;;;;36.45;19.08;;;;;;;;;;4944000;28;20038;-78
2024/01/18 12:32:18;;;;;;;34.33;16.88;;;;;;;;;;4959330;28;20082;-78
2024/01/18 12:34:44;;;;;;;38.65;17.67;;;;;;;;;;4958791;28;20438;-78
2024/01/18 12:37:16;;;;;;;36.28;18.35;;;;;;;;;;4976804;28;20042;-78
2024/01/18 12:39:41;;;;;;;39.60;19.50;;;;;;;;;;4945353;28;20062;-78
2024/01/18 12:42:07;;;;;;;43.90;19.88;;;;;;;;;;4966917;28;20351;-78
2024/01/18 12:44:33;;;;;;;39.00;20.13;;;;;;;;;;4982666;28;20034;-78
2024/01/18 12:47:00;;;;;;;44.55;19.92;;;;;;;;;;4984071;28;20143;-78
2024/01/18 12:49:29;;;;;;;43.97;20.35;;;;;;;;;;4945666;28;20027;-78
2024/01/18 12:51:56;;;;;;;42.20;20.25;;;;;;;;;;4958940;28;20035;-78
2024/01/18 12:54:22;;;;;;;44.28;21.95;;;;;;;;;;4941980;29;20034;-78
2024/01/18 12:56:58;;;;;;;45.88;21.30;;;;;;;;;;4959623;29;20030;-77
2024/01/18 12:59:27;;;;;;;42.83;21.20;;;;;;;;;;4960211;29;20119;-78
2024/01/18 13:01:53;;;;;;;45.17;20.27;;;;;;;;;;4970917;29;20474;-78
2024/01/18 13:04:24;;;;;;;46.35;21.20;;;;;;;;;;4938533;29;20094;-78
2024/01/18 13:06:53;;;;;;;43.35;21.17;;;;;;;;;;4972470;28;20485;-78
2024/01/18 13:09:25;;;;;;;45.92;20.67;;;;;;;;;;4970188;28;20042;-78
2024/01/18 13:11:52;;;;;;;42.65;20.75;;;;;;;;;;4927329;29;20035;-79
2024/01/18 13:14:20;;;;;;;41.90;21.30;;;;;;;;;;4942888;29;20038;-77
2024/01/18 13:16:46;;;;;;;46.38;22.10;;;;;;;;;;4959058;29;20047;-79
2024/01/18 13:19:16;;;;;;;38.75;21.27;;;;;;;;;;4942685;29;20087;-77
2024/01/18 13:21:44;;;;;;;52.08;23.27;;;;;;;;;;4943137;29;20479;-77
2024/01/18 13:24:13;;;;;;;45.22;23.08;;;;;;;;;;4910749;28;20071;-79
2024/01/18 13:26:39;;;;;;;44.35;21.42;;;;;;;;;;4959887;28;20110;-78
2024/01/18 13:29:06;;;;;;;43.15;20.98;;;;;;;;;;4972310;28;20073;-78
2024/01/18 13:31:32;;;;;;;42.30;21.50;;;;;;;;;;4928979;28;20055;-79
2024/01/18 13:33:57;;;;;;;43.25;21.67;;;;;;;;;;4956795;28;20058;-78
2024/01/18 13:36:24;;;;;;;41.95;20.67;;;;;;;;;;4961724;28;20019;-77
2024/01/18 13:38:53;;;;;;;43.15;20.30;;;;;;;;;;4945715;28;20502;-78
2024/01/18 13:41:18;;;;;;;;;;;;;;;;;;4979871;28;20039;-78
2024/01/18 13:43:45;;;;;;;47.28;21.42;;;;;;;;;;4959525;28;19910;-78
2024/01/18 13:46:13;;;;;;;49.10;22.75;;;;;;;;;;4919029;29;20383;-78
2024/01/18 13:48:49;;;;;;;47.35;21.63;;;;;;;;;;4943213;29;20031;-78
2024/01/18 13:51:15;;;;;;;45.17;21.85;;;;;;;;;;4958329;29;20035;-78
2024/01/18 13:53:41;;;;;;;51.08;23.25;;;;;;;;;;4926099;29;20036;-78
2024/01/18 13:56:11;;;;;;;47.33;22.15;;;;;;;;;;4953316;28;20027;-79
2024/01/18 13:58:39;;;;;;;48.20;22.55;;;;;;;;;;4959694;28;20031;-78
2024/01/18 14:01:04;;;;;;;51.70;23.50;;;;;;;;;;4961763;28;20089;-79
2024/01/18 14:03:30;;;;;;;45.60;22.85;;;;;;;;;;4929839;28;20039;-80
2024/01/18 14:06:59;;;;;;;49.17;21.45;;;;;;;;;;4965060;28;20037;-78
2024/01/18 14:10:07;;;;;;;54.42;23.05;;;;;;;;;;4956541;28;20042;-79
2024/01/18 14:13:40;;;;;;;50.00;21.33;;;;;;;;;;4967358;28;20085;-77
2024/01/18 14:24:37;;;;;;;49.90;20.60;;;;;;;;;;4932952;29;20148;-80
2024/01/18 14:31:18;;;;;;;48.85;19.98;;;;;;;;;;4920806;29;20569;-79